Time;durP1;ratioP1;P1;durP2;ratioP2;P2;SDS_P1;SDS_P2;PMS_P1;PMS_P2;Temp;Humidity;BMP_temperature;BMP_pressure;BME280_temperature;BME280_humidity;BME280_pressure;Samples;Min_cycle;Max_cycle;Signal;HPM_P1;HPM_P2
2023/04/10 00:01:34;;;;;;;;;;;10.40;66.10;;;;;;5049969;28;19978;-72
2023/04/10 00:04:01;;;;;;;;;;;10.30;66.10;;;;;;5055700;28;19936;-69
2023/04/10 00:06:27;;;;;;;;;;;10.30;66.20;;;;;;5056323;28;19939;-73
2023/04/10 00:08:54;;;;;;;;;;;10.20;66.20;;;;;;5050963;28;20008;-72
2023/04/10 00:11:20;;;;;;;;;;;10.20;66.30;;;;;;5056365;28;20484;-72
2023/04/10 00:13:47;;;;;;;;;;;10.20;66.40;;;;;;5048347;28;19928;-71
2023/04/10 00:16:13;;;;;;;;;;;10.20;66.60;;;;;;5043492;28;19932;-72
2023/04/10 00:18:41;;;;;;;;;;;10.20;66.70;;;;;;5049572;28;19928;-72
2023/04/10 00:21:08;;;;;;;;;;;10.10;66.70;;;;;;5051674;28;20541;-72
2023/04/10 00:23:34;;;;;;;;;;;10.10;66.80;;;;;;5051116;28;19959;-72
2023/04/10 00:26:01;;;;;;;;;;;10.00;66.80;;;;;;5052139;28;19932;-69
2023/04/10 00:28:27;;;;;;;;;;;10.00;66.90;;;;;;5047443;28;19974;-71
2023/04/10 00:30:54;;;;;;;;;;;10.00;67.00;;;;;;5051276;28;20318;-72
2023/04/10 00:33:20;;;;;;;;;;;10.00;67.10;;;;;;5052715;28;19932;-72
2023/04/10 00:35:48;;;;;;;;;;;9.90;67.10;;;;;;5049524;28;19936;-72
2023/04/10 00:38:15;;;;;;;;;;;9.90;67.20;;;;;;5056207;28;19928;-72
2023/04/10 00:40:42;;;;;;;;;;;9.90;67.20;;;;;;5052911;28;19939;-73
2023/04/10 00:43:08;;;;;;;;;;;9.90;67.30;;;;;;5058355;28;19978;-73
2023/04/10 00:45:35;;;;;;;;;;;9.80;67.30;;;;;;5046474;28;19947;-72
2023/04/10 00:48:03;;;;;;;;;;;9.80;67.50;;;;;;5043007;28;19935;-70
2023/04/10 00:50:29;;;;;;;;;;;9.80;67.60;;;;;;5045752;28;19959;-73
2023/04/10 00:52:58;;;;;;;;;;;9.70;67.50;;;;;;5058382;28;20716;-70
2023/04/10 00:55:25;;;;;;;;;;;9.70;67.60;;;;;;5050967;28;19990;-73
2023/04/10 00:57:52;;;;;;;;;;;9.70;67.70;;;;;;5055166;28;20406;-71
2023/04/10 01:00:18;;;;;;;;;;;9.70;67.70;;;;;;5051901;28;19932;-72
2023/04/10 01:02:45;;;;;;;;;;;9.60;67.80;;;;;;5057465;28;19936;-72
2023/04/10 01:05:12;;;;;;;;;;;9.60;67.80;;;;;;5050199;28;19935;-73
2023/04/10 01:07:46;;;;;;;;;;;9.60;67.90;;;;;;5048169;28;19939;-72
2023/04/10 01:10:17;;;;;;;;;;;9.60;68.00;;;;;;5052734;28;19935;-72
2023/04/10 01:12:50;;;;;;;;;;;9.50;68.00;;;;;;5053878;28;19982;-73
2023/04/10 01:15:18;;;;;;;;;;;9.50;68.10;;;;;;5051756;28;19928;-69
2023/04/10 01:17:49;;;;;;;;;;;9.50;68.20;;;;;;5048058;28;19978;-72
2023/04/10 01:20:19;;;;;;;;;;;9.50;68.20;;;;;;5053533;28;19982;-72
2023/04/10 01:22:52;;;;;;;;;;;9.50;68.30;;;;;;5054515;28;20010;-71
2023/04/10 01:25:37;;;;;;;;;;;9.40;68.30;;;;;;5056837;28;19932;-73
2023/04/10 01:28:09;;;;;;;;;;;9.40;68.40;;;;;;5042329;28;20024;-71
2023/04/10 01:30:37;;;;;;;;;;;9.40;68.50;;;;;;5041175;28;19933;-70
2023/04/10 01:33:05;;;;;;;;;;;9.30;68.50;;;;;;5044644;28;19933;-70
2023/04/10 01:35:33;;;;;;;;;;;9.40;68.60;;;;;;5053188;28;20471;-70
2023/04/10 01:38:01;;;;;;;;;;;9.30;68.60;;;;;;5049542;28;20547;-69
2023/04/10 01:40:29;;;;;;;;;;;9.30;68.70;;;;;;5049764;28;19929;-72
2023/04/10 01:42:56;;;;;;;;;;;9.30;68.70;;;;;;5043091;28;20032;-73
2023/04/10 01:45:25;;;;;;;;;;;9.20;68.70;;;;;;5049066;28;19932;-70
2023/04/10 01:47:53;;;;;;;;;;;9.20;68.80;;;;;;5049560;28;19932;-73
2023/04/10 01:50:22;;;;;;;;;;;9.20;68.80;;;;;;5052246;28;19928;-71
2023/04/10 01:52:50;;;;;;;;;;;9.10;68.80;;;;;;5053696;28;19925;-69
2023/04/10 01:55:16;;;;;;;;;;;9.10;68.80;;;;;;5047451;28;19931;-70
2023/04/10 01:57:44;;;;;;;;;;;9.10;68.90;;;;;;5052750;28;19948;-71
2023/04/10 02:00:11;;;;;;;;;;;9.10;69.00;;;;;;5053019;28;20382;-72
2023/04/10 02:02:38;;;;;;;;;;;9.10;69.80;;;;;;5063522;28;19968;-71
2023/04/10 02:05:06;;;;;;;;;;;9.00;69.00;;;;;;5051408;28;20313;-70
2023/04/10 02:07:36;;;;;;;;;;;9.00;69.10;;;;;;5049679;28;19997;-69
2023/04/10 02:10:08;;;;;;;;;;;9.00;69.10;;;;;;5051249;28;19925;-70
2023/04/10 02:12:36;;;;;;;;;;;9.00;69.20;;;;;;5058449;28;19924;-69
2023/04/10 02:15:05;;;;;;;;;;;8.90;69.30;;;;;;5058325;28;19928;-68
2023/04/10 02:17:33;;;;;;;;;;;8.90;69.30;;;;;;5057909;28;19956;-70
2023/04/10 02:19:59;;;;;;;;;;;8.90;69.40;;;;;;5053764;28;19932;-73
2023/04/10 02:22:28;;;;;;;;;;;8.90;69.40;;;;;;5053130;28;19925;-70
2023/04/10 02:24:54;;;;;;;;;;;8.80;69.40;;;;;;5056721;28;19932;-72
2023/04/10 02:27:28;;;;;;;;;;;8.80;69.50;;;;;;5059839;28;19928;-69
2023/04/10 02:29:55;;;;;;;;;;;8.80;69.60;;;;;;5050736;28;20027;-69
2023/04/10 02:32:22;;;;;;;;;;;8.80;69.70;;;;;;5044820;28;19979;-69
2023/04/10 02:34:48;;;;;;;;;;;8.80;69.80;;;;;;5057405;28;19928;-69
2023/04/10 02:37:15;;;;;;;;;;;8.70;69.80;;;;;;5059692;28;19935;-68
2023/04/10 02:39:43;;;;;;;;;;;8.70;69.80;;;;;;5055969;28;19939;-69
2023/04/10 02:42:10;;;;;;;;;;;8.70;69.90;;;;;;5058188;28;19938;-68
2023/04/10 02:44:38;;;;;;;;;;;8.70;70.00;;;;;;5050696;28;19929;-70
2023/04/10 02:47:05;;;;;;;;;;;8.70;70.00;;;;;;5058920;28;19934;-69
2023/04/10 02:49:32;;;;;;;;;;;8.60;70.00;;;;;;5051626;28;20402;-68
2023/04/10 02:51:59;;;;;;;;;;;8.60;70.10;;;;;;5055433;28;20329;-72
2023/04/10 02:54:25;;;;;;;;;;;8.60;70.10;;;;;;5051216;28;19935;-71
2023/04/10 02:56:53;;;;;;;;;;;8.60;70.30;;;;;;5057984;28;20325;-68
2023/04/10 02:59:20;;;;;;;;;;;8.50;70.20;;;;;;5055285;28;19940;-68
2023/04/10 03:01:47;;;;;;;;;;;8.50;70.30;;;;;;5051793;28;20031;-69
2023/04/10 03:04:13;;;;;;;;;;;8.50;70.40;;;;;;5047144;28;19928;-69
2023/04/10 03:06:40;;;;;;;;;;;8.50;70.40;;;;;;5047323;28;19939;-69
2023/04/10 03:09:07;;;;;;;;;;;8.50;70.50;;;;;;5056076;28;19928;-69
2023/04/10 03:11:34;;;;;;;;;;;8.40;70.50;;;;;;5052108;28;19932;-69
2023/04/10 03:14:02;;;;;;;;;;;8.40;70.70;;;;;;5043268;28;19932;-71
2023/04/10 03:16:29;;;;;;;;;;;8.40;70.80;;;;;;5049618;28;20310;-69
2023/04/10 03:18:56;;;;;;;;;;;8.30;70.70;;;;;;5055229;28;20381;-69
2023/04/10 03:21:22;;;;;;;;;;;8.30;70.80;;;;;;5047065;28;19932;-68
2023/04/10 03:23:49;;;;;;;;;;;8.30;70.90;;;;;;5051327;28;19929;-68
2023/04/10 03:26:16;;;;;;;;;;;8.20;70.90;;;;;;5055411;28;19928;-71
2023/04/10 03:28:42;;;;;;;;;;;8.30;71.00;;;;;;5047176;28;19943;-71
2023/04/10 03:31:11;;;;;;;;;;;8.20;71.00;;;;;;5049386;28;19932;-68
2023/04/10 03:33:37;;;;;;;;;;;8.20;71.10;;;;;;5052872;28;20795;-69
2023/04/10 03:36:04;;;;;;;;;;;8.20;71.10;;;;;;5056105;28;19928;-68
2023/04/10 03:38:31;;;;;;;;;;;8.20;71.20;;;;;;5050769;28;19932;-70
2023/04/10 03:40:57;;;;;;;;;;;8.20;72.00;;;;;;5053095;28;20414;-71
2023/04/10 03:43:24;;;;;;;;;;;8.10;71.30;;;;;;5062521;28;19928;-72
2023/04/10 03:45:50;;;;;;;;;;;8.10;71.30;;;;;;5054415;28;19991;-72
2023/04/10 03:48:18;;;;;;;;;;;8.10;71.50;;;;;;5057908;28;19989;-70
2023/04/10 03:50:45;;;;;;;;;;;8.10;71.50;;;;;;5056037;28;19929;-71
2023/04/10 03:53:11;;;;;;;;;;;8.10;71.50;;;;;;5056365;28;19929;-71
2023/04/10 03:55:38;;;;;;;;;;;8.10;71.60;;;;;;5055448;28;19932;-71
2023/04/10 03:58:05;;;;;;;;;;;8.10;71.70;;;;;;5055640;28;19936;-70
2023/04/10 04:00:31;;;;;;;;;;;8.00;71.80;;;;;;5051336;28;19937;-70
2023/04/10 04:02:59;;;;;;;;;;;8.00;71.80;;;;;;5052021;28;19932;-70
2023/04/10 04:05:27;;;;;;;;;;;8.00;71.90;;;;;;5049924;28;19935;-70
2023/04/10 04:07:54;;;;;;;;;;;8.00;71.90;;;;;;5046678;28;19952;-72
2023/04/10 04:10:20;;;;;;;;;;;8.00;72.00;;;;;;5047240;28;20006;-71
2023/04/10 04:12:47;;;;;;;;;;;7.90;72.00;;;;;;5052718;28;19929;-69
2023/04/10 04:15:13;;;;;;;;;;;7.90;72.10;;;;;;5055997;28;20306;-72
2023/04/10 04:17:40;;;;;;;;;;;7.90;72.10;;;;;;5052767;28;19928;-70
2023/04/10 04:20:07;;;;;;;;;;;7.90;72.20;;;;;;5056572;28;19929;-70
2023/04/10 04:22:35;;;;;;;;;;;7.90;72.30;;;;;;5057304;28;19933;-69
2023/04/10 04:25:02;;;;;;;;;;;7.90;72.30;;;;;;5054037;28;19939;-69
2023/04/10 04:27:28;;;;;;;;;;;7.80;73.00;;;;;;5048680;28;19932;-71
2023/04/10 04:29:55;;;;;;;;;;;7.80;72.40;;;;;;5049681;28;19935;-71
2023/04/10 04:32:21;;;;;;;;;;;7.80;72.40;;;;;;5058500;28;19932;-71
2023/04/10 04:34:48;;;;;;;;;;;7.80;72.50;;;;;;5050184;28;19933;-72
2023/04/10 04:37:14;;;;;;;;;;;7.80;72.70;;;;;;5049169;28;20300;-72
2023/04/10 04:39:42;;;;;;;;;;;7.70;72.60;;;;;;5048486;28;19933;-72
2023/04/10 04:42:09;;;;;;;;;;;7.80;72.70;;;;;;5050834;28;19936;-72
2023/04/10 04:44:35;;;;;;;;;;;7.70;72.70;;;;;;5048287;28;19936;-72
2023/04/10 04:47:02;;;;;;;;;;;7.70;72.80;;;;;;5051093;28;20394;-69
2023/04/10 04:49:28;;;;;;;;;;;7.70;72.80;;;;;;5054124;28;19940;-72
2023/04/10 04:51:55;;;;;;;;;;;7.60;72.80;;;;;;5052720;28;20287;-71
2023/04/10 04:54:21;;;;;;;;;;;7.70;72.90;;;;;;5045727;28;19986;-71
2023/04/10 04:56:49;;;;;;;;;;;7.60;72.90;;;;;;5047225;28;19933;-70
2023/04/10 04:59:16;;;;;;;;;;;7.60;73.00;;;;;;5056950;28;19940;-71
2023/04/10 05:01:42;;;;;;;;;;;7.60;73.00;;;;;;5055059;28;19929;-72
2023/04/10 05:04:09;;;;;;;;;;;7.60;73.00;;;;;;5051329;28;19928;-70
2023/04/10 05:06:36;;;;;;;;;;;7.50;73.00;;;;;;5045010;28;19932;-71
2023/04/10 05:09:02;;;;;;;;;;;7.60;73.20;;;;;;5048870;28;19929;-69
2023/04/10 05:11:29;;;;;;;;;;;7.50;73.10;;;;;;5058543;28;20002;-70
2023/04/10 05:13:56;;;;;;;;;;;7.50;73.20;;;;;;5049192;28;20384;-74
2023/04/10 05:16:23;;;;;;;;;;;7.50;73.20;;;;;;5050518;28;19936;-71
2023/04/10 05:18:50;;;;;;;;;;;7.50;73.20;;;;;;5060105;28;20349;-71
2023/04/10 05:21:16;;;;;;;;;;;7.50;73.30;;;;;;5055539;28;19929;-71
2023/04/10 05:23:43;;;;;;;;;;;7.50;73.40;;;;;;5056208;28;19936;-73
2023/04/10 05:26:09;;;;;;;;;;;7.40;73.40;;;;;;5047293;28;20620;-72
2023/04/10 05:28:36;;;;;;;;;;;7.40;73.40;;;;;;5057741;28;19972;-72
2023/04/10 05:31:04;;;;;;;;;;;7.40;73.50;;;;;;5058389;28;19928;-72
2023/04/10 05:33:30;;;;;;;;;;;7.40;73.60;;;;;;5055818;28;19928;-70
2023/04/10 05:35:57;;;;;;;;;;;7.40;73.70;;;;;;5049851;28;20295;-72
2023/04/10 05:38:24;;;;;;;;;;;7.40;73.70;;;;;;5047788;28;19929;-72
2023/04/10 05:40:50;;;;;;;;;;;7.30;73.70;;;;;;5052892;28;20007;-71
2023/04/10 05:43:17;;;;;;;;;;;7.40;73.80;;;;;;5048267;28;19959;-72
2023/04/10 05:45:44;;;;;;;;;;;7.30;73.80;;;;;;5049262;28;19932;-73
2023/04/10 05:48:12;;;;;;;;;;;7.30;73.90;;;;;;5055571;28;19928;-72
2023/04/10 05:50:38;;;;;;;;;;;7.30;73.90;;;;;;5052637;28;19929;-73
2023/04/10 05:53:05;;;;;;;;;;;7.30;74.00;;;;;;5050310;28;19936;-74
2023/04/10 05:55:31;;;;;;;;;;;7.30;74.00;;;;;;5057422;28;20683;-70
2023/04/10 05:57:58;;;;;;;;;;;7.30;74.10;;;;;;5062890;28;19928;-72
2023/04/10 06:00:25;;;;;;;;;;;7.30;74.10;;;;;;5056799;28;21454;-70
2023/04/10 06:02:51;;;;;;;;;;;7.30;74.20;;;;;;5059687;28;19932;-72
2023/04/10 06:05:19;;;;;;;;;;;7.30;74.20;;;;;;5048490;28;19989;-72
2023/04/10 06:07:46;;;;;;;;;;;7.30;74.30;;;;;;5048930;28;19935;-69
2023/04/10 06:10:13;;;;;;;;;;;7.30;74.30;;;;;;5054484;28;19932;-73
2023/04/10 06:12:39;;;;;;;;;;;7.30;74.40;;;;;;5052477;28;19936;-72
2023/04/10 06:15:06;;;;;;;;;;;7.30;74.50;;;;;;5057293;28;19932;-72
2023/04/10 06:17:33;;;;;;;;;;;7.30;74.50;;;;;;5058568;28;20389;-73
2023/04/10 06:20:02;;;;;;;;;;;7.30;74.60;;;;;;5055085;28;19940;-71
2023/04/10 06:22:31;;;;;;;;;;;7.30;74.70;;;;;;5056786;28;19933;-72
2023/04/10 06:24:57;;;;;;;;;;;7.20;74.70;;;;;;5053375;28;19929;-71
2023/04/10 06:27:24;;;;;;;;;;;7.30;74.90;;;;;;5050116;28;19928;-72
2023/04/10 06:29:51;;;;;;;;;;;7.30;74.90;;;;;;5053205;28;20310;-70
2023/04/10 06:32:17;;;;;;;;;;;7.30;75.00;;;;;;5055799;28;20607;-72
2023/04/10 06:34:45;;;;;;;;;;;7.30;75.10;;;;;;5052135;28;19929;-72
2023/04/10 06:37:11;;;;;;;;;;;7.20;75.10;;;;;;5044113;28;19928;-72
2023/04/10 06:39:39;;;;;;;;;;;7.30;75.30;;;;;;5051177;28;20006;-73
2023/04/10 06:42:06;;;;;;;;;;;7.20;75.40;;;;;;5059488;28;19935;-71
2023/04/10 06:44:32;;;;;;;;;;;7.20;76.20;;;;;;5054614;28;20449;-69
2023/04/10 06:46:59;;;;;;;;;;;7.20;75.60;;;;;;5054503;28;19929;-72
2023/04/10 06:49:26;;;;;;;;;;;7.20;75.70;;;;;;5046470;28;19933;-70
2023/04/10 06:51:52;;;;;;;;;;;7.20;75.80;;;;;;5054160;28;19940;-73
2023/04/10 06:54:19;;;;;;;;;;;7.20;75.90;;;;;;5057776;28;19982;-72
2023/04/10 06:56:47;;;;;;;;;;;7.20;75.90;;;;;;5055737;28;20370;-73
2023/04/10 06:59:13;;;;;;;;;;;7.20;76.00;;;;;;5050799;28;19936;-72
2023/04/10 07:01:40;;;;;;;;;;;7.20;76.10;;;;;;5051841;28;19933;-72
2023/04/10 07:04:07;;;;;;;;;;;7.20;76.10;;;;;;5051291;28;19929;-72
2023/04/10 07:06:33;;;;;;;;;;;7.30;76.20;;;;;;5050103;28;19929;-70
2023/04/10 07:09:00;;;;;;;;;;;7.20;76.10;;;;;;5055946;28;20409;-72
2023/04/10 07:11:26;;;;;;;;;;;7.20;76.20;;;;;;5058720;28;19939;-69
2023/04/10 07:13:57;;;;;;;;;;;7.30;77.10;;;;;;5051385;28;19932;-70
2023/04/10 07:16:23;;;;;;;;;;;7.30;76.30;;;;;;5051087;28;19939;-72
2023/04/10 07:18:50;;;;;;;;;;;7.30;76.30;;;;;;5051929;28;19932;-71
2023/04/10 07:21:16;;;;;;;;;;;7.30;76.40;;;;;;5056658;28;19928;-71
2023/04/10 07:23:43;;;;;;;;;;;7.30;76.40;;;;;;5060120;28;20342;-72
2023/04/10 07:26:09;;;;;;;;;;;7.30;76.30;;;;;;5053708;28;19987;-72
2023/04/10 07:28:37;;;;;;;;;;;7.40;76.20;;;;;;5062452;28;19948;-71
2023/04/10 07:31:05;;;;;;;;;;;7.40;76.90;;;;;;5051527;28;19924;-71
2023/04/10 07:33:31;;;;;;;;;;;7.40;76.10;;;;;;5057507;28;19928;-70
2023/04/10 07:35:58;;;;;;;;;;;7.40;76.10;;;;;;5054026;28;19963;-72
2023/04/10 07:38:24;;;;;;;;;;;7.40;76.10;;;;;;5057197;28;20600;-72
2023/04/10 07:40:55;;;;;;;;;;;7.50;76.10;;;;;;5056160;28;19929;-72
2023/04/10 07:43:22;;;;;;;;;;;7.50;76.10;;;;;;5055194;28;19932;-71
2023/04/10 07:45:48;;;;;;;;;;;7.50;76.00;;;;;;5058114;28;19932;-71
2023/04/10 07:48:16;;;;;;;;;;;7.60;75.90;;;;;;5054448;28;20031;-71
2023/04/10 07:50:43;;;;;;;;;;;7.60;75.80;;;;;;5060649;28;20521;-72
2023/04/10 07:53:09;;;;;;;;;;;7.60;75.60;;;;;;5056202;28;19928;-71
2023/04/10 07:55:39;;;;;;;;;;;7.60;75.50;;;;;;5047813;28;19932;-71
2023/04/10 07:58:05;;;;;;;;;;;7.60;75.30;;;;;;5060657;28;19928;-71
2023/04/10 08:00:32;;;;;;;;;;;7.70;75.10;;;;;;5054687;28;19928;-71
2023/04/10 08:02:59;;;;;;;;;;;7.70;75.00;;;;;;5058367;28;19928;-71
2023/04/10 08:05:27;;;;;;;;;;;7.80;75.00;;;;;;5054721;28;19935;-71
2023/04/10 08:07:54;;;;;;;;;;;7.80;74.90;;;;;;5054710;28;19955;-68
2023/04/10 08:10:20;;;;;;;;;;;7.80;74.90;;;;;;5056947;28;19936;-70
2023/04/10 08:12:47;;;;;;;;;;;7.80;74.80;;;;;;5055896;28;19932;-70
2023/04/10 08:15:13;;;;;;;;;;;7.90;74.60;;;;;;5058168;28;19932;-71
2023/04/10 08:17:40;;;;;;;;;;;7.90;74.40;;;;;;5054610;28;19986;-71
2023/04/10 08:20:07;;;;;;;;;;;7.90;74.20;;;;;;5057055;28;19934;-71
2023/04/10 08:22:35;;;;;;;;;;;8.00;74.10;;;;;;5056188;28;19928;-68
2023/04/10 08:25:01;;;;;;;;;;;8.00;73.90;;;;;;5054321;28;20291;-70
2023/04/10 08:27:29;;;;;;;;;;;8.00;73.70;;;;;;5051789;28;19939;-70
2023/04/10 08:29:55;;;;;;;;;;;8.10;73.70;;;;;;5053427;28;20011;-72
2023/04/10 08:32:25;;;;;;;;;;;8.10;73.60;;;;;;5055578;28;19936;-69
2023/04/10 08:34:51;;;;;;;;;;;8.20;73.50;;;;;;5050804;28;19935;-68
2023/04/10 08:37:19;;;;;;;;;;;8.20;73.30;;;;;;5057557;28;20648;-70
2023/04/10 08:39:47;;;;;;;;;;;8.30;73.20;;;;;;5051603;28;19958;-72
2023/04/10 08:42:13;;;;;;;;;;;8.40;73.10;;;;;;5054404;28;19940;-71
2023/04/10 08:44:40;;;;;;;;;;;8.40;73.00;;;;;;5050919;28;20476;-71
2023/04/10 08:47:08;;;;;;;;;;;8.50;72.70;;;;;;5054508;28;19933;-70
2023/04/10 08:49:40;;;;;;;;;;;8.50;72.50;;;;;;5048058;28;19929;-70
2023/04/10 08:52:07;;;;;;;;;;;8.60;72.30;;;;;;5053325;28;19929;-72
2023/04/10 08:54:35;;;;;;;;;;;8.60;72.30;;;;;;5058165;28;20676;-72
2023/04/10 08:57:03;;;;;;;;;;;8.70;72.20;;;;;;5056239;28;19978;-71
2023/04/10 08:59:30;;;;;;;;;;;8.80;72.10;;;;;;5053349;28;19944;-70
2023/04/10 09:01:57;;;;;;;;;;;8.80;72.00;;;;;;5057555;28;19929;-73
2023/04/10 09:04:24;;;;;;;;;;;8.90;72.00;;;;;;5055089;28;20021;-74
2023/04/10 09:06:51;;;;;;;;;;;9.00;71.70;;;;;;5055813;28;20011;-71
2023/04/10 09:09:18;;;;;;;;;;;9.00;71.50;;;;;;5057714;28;19929;-69
2023/04/10 09:12:05;;;;;;;;;;;9.10;71.60;;;;;;5052399;28;19928;-71
2023/04/10 09:14:34;;;;;;;;;;;9.20;71.50;;;;;;5053574;28;19933;-68
2023/04/10 09:17:11;;;;;;;;;;;9.30;71.30;;;;;;5056506;28;19939;-69
2023/04/10 09:19:37;;;;;;;;;;;9.40;71.10;;;;;;5060622;28;20047;-72
2023/04/10 09:22:04;;;;;;;;;;;9.50;71.00;;;;;;5054675;28;19994;-72
2023/04/10 09:24:30;;;;;;;;;;;9.50;70.80;;;;;;5057600;28;19954;-71
2023/04/10 09:26:57;;;;;;;;;;;9.60;70.50;;;;;;5055924;28;19924;-71
2023/04/10 09:29:25;;;;;;;;;;;9.70;70.50;;;;;;5060389;28;19928;-71
2023/04/10 09:31:53;;;;;;;;;;;9.80;70.30;;;;;;5051897;28;20371;-71
2023/04/10 09:34:21;;;;;;;;;;;9.90;69.70;;;;;;5053388;28;20258;-69
2023/04/10 09:36:53;;;;;;;;;;;9.90;69.50;;;;;;5058381;28;19972;-71
2023/04/10 09:39:19;;;;;;;;;;;10.00;69.50;;;;;;5058756;28;20659;-69
2023/04/10 09:41:50;;;;;;;;;;;10.00;69.10;;;;;;5053271;28;20394;-69
2023/04/10 09:44:18;;;;;;;;;;;10.10;68.90;;;;;;5053136;28;19956;-70
2023/04/10 09:46:45;;;;;;;;;;;10.20;68.70;;;;;;5051245;28;20318;-72
2023/04/10 09:49:12;;;;;;;;;;;10.30;68.50;;;;;;5046811;28;19928;-72
2023/04/10 09:51:39;;;;;;;;;;;10.30;68.10;;;;;;5062347;28;19933;-73
2023/04/10 09:54:05;;;;;;;;;;;10.40;67.70;;;;;;5056943;28;19928;-72
2023/04/10 09:56:34;;;;;;;;;;;10.50;67.70;;;;;;5058873;28;19928;-70
2023/04/10 09:59:03;;;;;;;;;;;10.50;67.30;;;;;;5053375;28;20379;-69
2023/04/10 10:01:33;;;;;;;;;;;10.60;67.30;;;;;;5050841;28;20404;-70
2023/04/10 10:04:01;;;;;;;;;;;10.70;67.20;;;;;;5050385;28;19929;-69
2023/04/10 10:06:30;;;;;;;;;;;10.70;66.90;;;;;;5051598;28;19936;-72
2023/04/10 10:08:58;;;;;;;;;;;10.80;66.70;;;;;;5057766;28;19928;-72
2023/04/10 10:11:25;;;;;;;;;;;10.90;66.50;;;;;;5054613;28;19932;-72
2023/04/10 10:13:52;;;;;;;;;;;10.90;66.30;;;;;;5056198;28;19986;-71
2023/04/10 10:16:20;;;;;;;;;;;11.00;66.00;;;;;;5050744;28;19924;-71
2023/04/10 10:18:52;;;;;;;;;;;11.10;65.30;;;;;;5058463;28;20003;-73
2023/04/10 10:21:19;;;;;;;;;;;11.10;65.30;;;;;;5058607;28;20433;-69
2023/04/10 10:23:52;;;;;;;;;;;11.20;65.20;;;;;;5058682;28;19929;-71
2023/04/10 10:26:19;;;;;;;;;;;11.30;64.90;;;;;;5059556;28;19928;-71
2023/04/10 10:28:46;;;;;;;;;;;11.40;64.40;;;;;;5061179;28;19936;-72
2023/04/10 10:31:13;;;;;;;;;;;11.40;64.20;;;;;;5049456;28;20007;-71
2023/04/10 10:33:40;;;;;;;;;;;11.50;64.10;;;;;;5053400;28;19928;-73
2023/04/10 10:36:09;;;;;;;;;;;11.60;63.40;;;;;;5058986;28;19935;-72
2023/04/10 10:38:39;;;;;;;;;;;11.60;63.40;;;;;;5051198;28;20367;-74
2023/04/10 10:41:10;;;;;;;;;;;11.70;63.20;;;;;;5056491;28;19928;-70
2023/04/10 10:43:55;;;;;;;;;;;11.80;62.90;;;;;;5056810;28;20006;-72
2023/04/10 10:46:24;;;;;;;;;;;11.80;62.50;;;;;;5054980;28;20564;-71
2023/04/10 10:48:57;;;;;;;;;;;11.90;62.40;;;;;;5060352;28;19928;-74
2023/04/10 10:51:24;;;;;;;;;;;12.10;61.90;;;;;;5054542;28;20002;-71
2023/04/10 10:53:50;;;;;;;;;;;12.10;60.80;;;;;;5051542;28;19979;-71
2023/04/10 10:56:34;;;;;;;;;;;12.20;60.50;;;;;;5050252;28;20723;-73
2023/04/10 10:59:02;;;;;;;;;;;12.30;60.40;;;;;;5058827;28;20031;-73
2023/04/10 11:01:28;;;;;;;;;;;12.40;59.90;;;;;;5054231;28;19940;-73
2023/04/10 11:03:55;;;;;;;;;;;12.50;59.60;;;;;;5051462;28;19947;-71
2023/04/10 11:06:42;;;;;;;;;;;12.60;59.50;;;;;;5048411;28;19929;-69
2023/04/10 11:09:29;;;;;;;;;;;12.60;59.10;;;;;;5056621;28;20425;-73
2023/04/10 11:11:59;;;;;;;;;;;12.70;58.80;;;;;;5047784;28;20607;-73
2023/04/10 11:14:26;;;;;;;;;;;12.90;58.40;;;;;;5054217;28;19935;-72
2023/04/10 11:16:53;;;;;;;;;;;12.90;58.30;;;;;;5054373;28;19943;-72
2023/04/10 11:19:23;;;;;;;;;;;13.00;58.30;;;;;;5053109;28;19928;-70
2023/04/10 11:22:00;;;;;;;;;;;13.10;58.30;;;;;;5046511;28;19936;-71
2023/04/10 11:24:27;;;;;;;;;;;13.20;58.20;;;;;;5055622;28;19932;-73
2023/04/10 11:26:53;;;;;;;;;;;13.20;57.90;;;;;;5049720;28;19935;-72
2023/04/10 11:29:33;;;;;;;;;;;13.30;57.30;;;;;;5054050;28;19933;-70
2023/04/10 11:32:00;;;;;;;;;;;13.40;57.10;;;;;;5048211;28;19987;-70
2023/04/10 11:34:27;;;;;;;;;;;13.40;57.20;;;;;;5050633;28;19929;-72
2023/04/10 11:36:56;;;;;;;;;;;13.50;57.20;;;;;;5054795;28;21320;-73
2023/04/10 11:39:22;;;;;;;;;;;13.60;57.00;;;;;;5051434;28;19928;-71
2023/04/10 11:41:50;;;;;;;;;;;13.60;56.90;;;;;;5054418;28;20621;-70
2023/04/10 11:44:19;;;;;;;;;;;13.70;56.70;;;;;;5052251;28;19928;-70
2023/04/10 11:46:49;;;;;;;;;;;13.80;56.80;;;;;;5054770;28;19929;-70
2023/04/10 11:49:17;;;;;;;;;;;13.90;56.70;;;;;;5050328;28;20030;-70
2023/04/10 11:51:45;;;;;;;;;;;13.90;56.40;;;;;;5049473;28;19928;-73
2023/04/10 11:54:14;;;;;;;;;;;14.00;56.40;;;;;;5050637;28;19929;-72
2023/04/10 11:56:41;;;;;;;;;;;14.10;56.00;;;;;;5047652;28;19929;-73
2023/04/10 11:59:09;;;;;;;;;;;14.20;55.70;;;;;;5052759;28;19941;-70
2023/04/10 12:01:36;;;;;;;;;;;14.20;55.40;;;;;;5048877;28;20051;-72
2023/04/10 12:04:06;;;;;;;;;;;14.30;55.40;;;;;;5054751;28;19928;-70
2023/04/10 12:06:33;;;;;;;;;;;14.30;54.50;;;;;;5054852;28;19950;-71
2023/04/10 12:08:59;;;;;;;;;;;14.40;54.70;;;;;;5051724;28;19937;-71
2023/04/10 12:11:27;;;;;;;;;;;14.40;54.40;;;;;;5052078;28;19940;-73
2023/04/10 12:13:54;;;;;;;;;;;14.50;54.20;;;;;;5056182;28;20463;-71
2023/04/10 12:16:21;;;;;;;;;;;14.50;53.10;;;;;;5049485;28;19982;-74
2023/04/10 12:18:48;;;;;;;;;;;14.60;52.90;;;;;;5051760;28;20014;-71
2023/04/10 12:21:16;;;;;;;;;;;14.60;52.90;;;;;;5057717;28;20394;-74
2023/04/10 12:23:43;;;;;;;;;;;14.70;52.90;;;;;;5053613;28;20417;-72
2023/04/10 12:26:10;;;;;;;;;;;14.70;52.90;;;;;;5054249;28;19940;-72
2023/04/10 12:28:38;;;;;;;;;;;14.70;52.50;;;;;;5053023;28;20651;-72
2023/04/10 12:31:04;;;;;;;;;;;14.80;52.50;;;;;;5045695;28;19928;-72
2023/04/10 12:33:31;;;;;;;;;;;14.80;52.30;;;;;;5053160;28;19951;-70
2023/04/10 12:35:58;;;;;;;;;;;14.90;52.30;;;;;;5047518;28;20534;-72
2023/04/10 12:38:36;;;;;;;;;;;14.90;52.00;;;;;;5054409;28;19934;-70
2023/04/10 12:41:03;;;;;;;;;;;14.90;52.00;;;;;;5049683;28;19928;-72
2023/04/10 12:43:30;;;;;;;;;;;15.00;51.90;;;;;;5049227;28;19928;-71
2023/04/10 12:45:56;;;;;;;;;;;15.00;51.50;;;;;;5046664;28;19933;-72
2023/04/10 12:48:23;;;;;;;;;;;15.10;51.50;;;;;;5045073;28;19932;-70
2023/04/10 12:50:50;;;;;;;;;;;15.10;50.50;;;;;;5047922;28;19928;-70
2023/04/10 12:53:16;;;;;;;;;;;15.10;50.20;;;;;;5050107;28;19935;-72
2023/04/10 12:55:56;;;;;;;;;;;15.20;50.20;;;;;;5049689;28;19936;-73
2023/04/10 12:58:26;;;;;;;;;;;15.30;48.60;;;;;;5056884;28;19928;-72
2023/04/10 13:00:54;;;;;;;;;;;15.40;48.70;;;;;;5047795;28;19932;-68
2023/04/10 13:03:20;;;;;;;;;;;15.40;49.00;;;;;;5052711;28;19931;-70
2023/04/10 13:05:47;;;;;;;;;;;15.50;49.00;;;;;;5052401;28;20067;-69
2023/04/10 13:08:13;;;;;;;;;;;15.60;48.90;;;;;;5054201;28;19925;-72
2023/04/10 13:10:41;;;;;;;;;;;15.70;48.80;;;;;;5056152;28;19925;-72
2023/04/10 13:13:10;;;;;;;;;;;15.80;48.70;;;;;;5054059;28;19967;-71
2023/04/10 13:15:37;;;;;;;;;;;15.80;48.10;;;;;;5051249;28;19925;-70
2023/04/10 13:18:05;;;;;;;;;;;15.80;48.10;;;;;;5056446;28;19932;-72
2023/04/10 13:20:32;;;;;;;;;;;15.90;47.40;;;;;;5054270;28;20055;-69
2023/04/10 13:22:58;;;;;;;;;;;15.90;47.50;;;;;;5054739;28;20338;-73
2023/04/10 13:25:26;;;;;;;;;;;16.00;47.40;;;;;;5049394;28;19998;-70
2023/04/10 13:27:53;;;;;;;;;;;16.00;47.40;;;;;;5059258;28;19967;-70
2023/04/10 13:30:20;;;;;;;;;;;16.00;47.60;;;;;;5053860;28;21043;-69
2023/04/10 13:32:47;;;;;;;;;;;16.00;47.90;;;;;;5056650;28;20001;-72
2023/04/10 13:35:13;;;;;;;;;;;16.00;47.60;;;;;;5052748;28;19929;-73
2023/04/10 13:37:40;;;;;;;;;;;16.00;47.80;;;;;;5044608;28;19983;-71
2023/04/10 13:40:07;;;;;;;;;;;16.00;47.60;;;;;;5053647;28;20356;-69
2023/04/10 13:42:34;;;;;;;;;;;16.00;47.90;;;;;;5051022;28;20524;-70
2023/04/10 13:45:01;;;;;;;;;;;16.10;48.10;;;;;;5055561;28;19931;-67
2023/04/10 13:47:29;;;;;;;;;;;16.10;48.00;;;;;;5055364;28;19983;-72
2023/04/10 13:49:55;;;;;;;;;;;16.10;48.10;;;;;;5044335;28;19925;-71
2023/04/10 13:52:22;;;;;;;;;;;16.10;48.20;;;;;;5056893;28;19934;-72
2023/04/10 13:54:48;;;;;;;;;;;16.20;48.30;;;;;;5057356;28;19936;-70
2023/04/10 13:57:15;;;;;;;;;;;16.30;48.10;;;;;;5051423;28;19924;-72
2023/04/10 13:59:41;;;;;;;;;;;16.30;47.90;;;;;;5058114;28;19943;-69
2023/04/10 14:02:09;;;;;;;;;;;16.40;47.80;;;;;;5053597;28;19936;-72
2023/04/10 14:04:36;;;;;;;;;;;16.40;47.20;;;;;;5056045;28;19928;-69
2023/04/10 14:07:03;;;;;;;;;;;16.40;47.40;;;;;;5046345;28;19936;-69
2023/04/10 14:09:30;;;;;;;;;;;16.40;47.40;;;;;;5057958;28;19943;-73
2023/04/10 14:11:56;;;;;;;;;;;16.50;47.70;;;;;;5057505;28;19929;-72
2023/04/10 14:14:23;;;;;;;;;;;16.50;47.80;;;;;;5051139;28;19928;-70
2023/04/10 14:16:50;;;;;;;;;;;16.60;48.00;;;;;;5046538;28;21550;-71
2023/04/10 14:19:16;;;;;;;;;;;16.60;48.30;;;;;;5059790;28;19928;-71
2023/04/10 14:21:44;;;;;;;;;;;16.60;48.20;;;;;;5055708;28;19928;-73
2023/04/10 14:24:11;;;;;;;;;;;16.70;48.10;;;;;;5053913;28;19928;-71
2023/04/10 14:26:37;;;;;;;;;;;16.80;47.90;;;;;;5052389;28;19983;-70
2023/04/10 14:29:06;;;;;;;;;;;16.80;48.00;;;;;;5051744;28;19932;-68